createdAt,value
2023-01-10T00:02:04.044Z,2.15
2023-01-10T00:04:32.545Z,1.77
2023-01-10T00:07:00.920Z,0.85
2023-01-10T00:09:29.410Z,1.80
2023-01-10T00:12:15.848Z,1.23
2023-01-10T00:14:44.348Z,1.63
2023-01-10T00:17:12.805Z,1.65
2023-01-10T00:19:41.314Z,1.45
2023-01-10T00:22:14.593Z,0.88
2023-01-10T00:24:44.057Z,1.05
2023-01-10T00:27:17.069Z,1.15
2023-01-10T00:29:46.083Z,1.70
2023-01-10T00:32:14.713Z,0.85
2023-01-10T00:34:43.209Z,1.17
2023-01-10T00:37:11.700Z,1.02
2023-01-10T00:39:40.264Z,1.65
2023-01-10T00:42:26.603Z,2.53
2023-01-10T00:47:24.738Z,1.08
2023-01-10T00:49:53.284Z,1.05
2023-01-10T00:52:21.746Z,1.10
2023-01-10T00:54:50.261Z,0.90
2023-01-10T00:57:18.725Z,1.55
2023-01-10T00:59:47.174Z,1.58
2023-01-10T01:02:17.233Z,0.82
2023-01-10T01:04:45.759Z,0.98
2023-01-10T01:07:14.265Z,1.42
2023-01-10T01:09:56.694Z,1.15
2023-01-10T01:12:25.289Z,0.70
2023-01-10T01:14:53.954Z,1.02
2023-01-10T01:17:23.696Z,0.95
2023-01-10T01:19:52.283Z,1.20
2023-01-10T01:22:21.029Z,0.73
2023-01-10T01:24:49.507Z,0.60
2023-01-10T01:27:17.996Z,1.08
2023-01-10T01:29:46.516Z,0.75
2023-01-10T01:32:15.011Z,1.02
2023-01-10T01:34:45.111Z,1.35
2023-01-10T01:37:13.808Z,0.98
2023-01-10T01:39:42.297Z,0.98
2023-01-10T01:42:22.288Z,1.20
2023-01-10T01:45:31.972Z,0.63
2023-01-10T01:48:07.566Z,1.15
2023-01-10T01:50:41.313Z,1.20
2023-01-10T01:53:14.377Z,1.27
2023-01-10T01:55:46.282Z,1.20
2023-01-10T01:58:19.821Z,1.13
2023-01-10T02:00:48.362Z,1.60
2023-01-10T02:03:17.339Z,0.73
2023-01-10T02:05:47.780Z,0.98
2023-01-10T02:08:16.225Z,0.93
2023-01-10T02:10:49.897Z,1.08
2023-01-10T02:13:21.713Z,1.23
2023-01-10T02:15:50.596Z,0.65
2023-01-10T02:18:20.635Z,1.25
2023-01-10T02:21:05.878Z,0.63
2023-01-10T02:24:22.005Z,0.75
2023-01-10T02:27:10.785Z,1.35
2023-01-10T02:30:11.559Z,1.17
2023-01-10T02:33:00.607Z,0.80
2023-01-10T02:35:55.138Z,1.05
2023-01-10T02:38:37.456Z,1.05
2023-01-10T02:41:15.481Z,0.90
2023-01-10T02:43:49.458Z,0.65
2023-01-10T02:46:24.546Z,0.85
2023-01-10T02:48:54.899Z,0.68
2023-01-10T02:51:27.057Z,0.85
2023-01-10T02:54:01.422Z,1.08
2023-01-10T02:57:08.839Z,1.02
2023-01-10T03:00:12.580Z,0.50
2023-01-10T03:02:49.281Z,0.73
2023-01-10T03:05:30.245Z,0.68
2023-01-10T03:08:10.639Z,0.90
2023-01-10T03:10:45.614Z,0.85
2023-01-10T03:13:19.750Z,0.77
2023-01-10T03:18:24.605Z,0.50
2023-01-10T03:20:56.694Z,0.55
2023-01-10T03:23:27.531Z,0.60
2023-01-10T03:25:58.416Z,0.40
2023-01-10T03:28:31.563Z,0.80
2023-01-10T03:31:05.286Z,1.15
2023-01-10T03:33:35.539Z,0.75
2023-01-10T03:36:20.784Z,0.50
2023-01-10T03:38:53.274Z,0.88
2023-01-10T03:41:34.097Z,0.57
2023-01-10T03:44:30.865Z,0.60
2023-01-10T03:47:04.466Z,0.93
2023-01-10T03:49:35.983Z,1.50
2023-01-10T03:52:08.276Z,0.73
2023-01-10T03:54:36.692Z,0.98
2023-01-10T03:57:07.921Z,1.05
2023-01-10T03:59:36.339Z,0.65
2023-01-10T04:02:04.906Z,0.50
2023-01-10T04:04:33.491Z,0.88
2023-01-10T04:07:01.908Z,1.30
2023-01-10T04:09:31.655Z,1.20
2023-01-10T04:12:00.101Z,0.60
2023-01-10T04:14:28.736Z,0.80
2023-01-10T04:16:57.703Z,0.60
2023-01-10T04:19:26.251Z,0.80
2023-01-10T04:21:54.726Z,0.82
2023-01-10T04:24:23.386Z,1.00
2023-01-10T04:26:53.121Z,0.70
2023-01-10T04:29:21.504Z,0.68
2023-01-10T04:31:50.167Z,1.13
2023-01-10T04:34:20.232Z,0.52
2023-01-10T04:36:50.663Z,0.55
2023-01-10T04:39:19.234Z,0.57
2023-01-10T04:41:47.663Z,0.60
2023-01-10T04:44:17.524Z,0.50
2023-01-10T04:46:46.014Z,0.82
2023-01-10T04:49:14.578Z,0.55
2023-01-10T04:51:43.026Z,1.25
2023-01-10T04:54:11.440Z,0.47
2023-01-10T04:56:39.928Z,0.90
2023-01-10T04:59:10.119Z,1.35
2023-01-10T05:01:40.061Z,0.65
2023-01-10T05:04:08.561Z,0.45
2023-01-10T05:06:39.989Z,0.80
2023-01-10T05:09:08.662Z,0.73
2023-01-10T05:11:37.403Z,0.95
2023-01-10T05:14:05.826Z,0.52
2023-01-10T05:16:34.316Z,0.47
2023-01-10T05:19:04.185Z,0.40
2023-01-10T05:21:32.652Z,1.17
2023-01-10T05:24:01.135Z,0.47
2023-01-10T05:26:29.582Z,0.88
2023-01-10T05:28:58.033Z,1.48
2023-01-10T05:31:26.585Z,0.63
2023-01-10T05:33:55.106Z,0.55
2023-01-10T05:36:24.883Z,0.60
2023-01-10T05:38:53.391Z,1.05
2023-01-10T05:41:21.818Z,0.85
2023-01-10T05:43:50.316Z,0.95
2023-01-10T05:46:18.802Z,0.50
2023-01-10T05:48:47.254Z,1.42
2023-01-10T05:51:15.748Z,0.60
2023-01-10T05:53:45.511Z,0.52
2023-01-10T05:56:13.954Z,0.93
2023-01-10T05:58:42.375Z,0.32
2023-01-10T06:01:10.896Z,1.08
2023-01-10T06:03:40.136Z,2.15
2023-01-10T06:06:09.093Z,0.60
2023-01-10T06:08:37.929Z,0.88
2023-01-10T06:11:08.267Z,2.80
2023-01-10T06:13:36.878Z,1.05
2023-01-10T06:16:05.868Z,1.13
2023-01-10T06:18:34.351Z,1.83
2023-01-10T06:21:02.728Z,0.63
2023-01-10T06:23:31.202Z,1.48
2023-01-10T06:25:59.595Z,1.40
2023-01-10T06:28:29.439Z,1.70
2023-01-10T06:30:57.917Z,0.90
2023-01-10T06:33:26.451Z,1.10
2023-01-10T06:35:55.069Z,0.80
2023-01-10T06:38:23.512Z,1.73
2023-01-10T06:40:51.940Z,1.02
2023-01-10T06:43:20.395Z,1.75
2023-01-10T06:45:51.232Z,1.23
2023-01-10T06:48:19.695Z,3.28
2023-01-10T06:50:48.143Z,1.45
2023-01-10T06:53:16.588Z,1.45
2023-01-10T06:55:45.055Z,0.55
2023-01-10T06:58:18.253Z,1.67
2023-01-10T07:00:46.712Z,1.20
2023-01-10T07:03:16.828Z,0.50
2023-01-10T07:05:45.259Z,0.45
2023-01-10T07:08:13.732Z,1.75
2023-01-10T07:10:42.633Z,0.85
2023-01-10T07:13:11.298Z,1.23
2023-01-10T07:15:39.685Z,0.57
2023-01-10T07:18:09.418Z,0.68
2023-01-10T07:20:40.136Z,2.58
2023-01-10T07:23:08.618Z,3.92
2023-01-10T07:25:37.119Z,4.95
2023-01-10T07:28:06.411Z,4.07
2023-01-10T07:30:34.985Z,0.90
2023-01-10T07:33:03.958Z,2.67
2023-01-10T07:35:32.436Z,4.43
2023-01-10T07:38:03.220Z,5.65
2023-01-10T07:40:31.681Z,1.83
2023-01-10T07:43:01.353Z,1.55
2023-01-10T07:45:31.169Z,1.85
2023-01-10T07:48:00.408Z,1.30
2023-01-10T07:50:30.866Z,1.67
2023-01-10T07:53:00.783Z,1.70
2023-01-10T07:55:30.991Z,1.48
2023-01-10T07:57:59.471Z,1.38
2023-01-10T08:00:28.730Z,1.08
2023-01-10T08:02:57.526Z,1.92
2023-01-10T08:05:26.163Z,2.00
2023-01-10T08:07:56.187Z,1.20
2023-01-10T08:10:25.881Z,0.80
2023-01-10T08:12:57.750Z,3.85
2023-01-10T08:15:26.434Z,2.63
2023-01-10T08:17:55.284Z,1.45
2023-01-10T08:20:23.867Z,2.00
2023-01-10T08:22:52.411Z,1.33
2023-01-10T08:25:20.864Z,2.85
2023-01-10T08:27:49.346Z,2.67
2023-01-10T08:30:19.573Z,2.15
2023-01-10T08:32:48.060Z,2.92
2023-01-10T08:35:16.637Z,4.45
2023-01-10T08:37:45.138Z,1.98
2023-01-10T08:40:14.143Z,3.28
2023-01-10T08:42:42.683Z,2.97
2023-01-10T08:45:11.978Z,2.33
2023-01-10T08:47:41.783Z,2.75
2023-01-10T08:50:11.351Z,2.08
2023-01-10T08:52:39.867Z,2.45
2023-01-10T08:55:09.434Z,1.80
2023-01-10T08:57:37.960Z,1.42
2023-01-10T09:00:07.848Z,3.17
2023-01-10T09:02:36.330Z,2.80
2023-01-10T09:05:12.273Z,2.17
2023-01-10T09:07:50.557Z,2.92
2023-01-10T09:10:19.069Z,1.20
2023-01-10T09:12:56.495Z,2.80
2023-01-10T09:15:26.714Z,2.53
2023-01-10T09:17:56.097Z,2.67
2023-01-10T09:20:27.898Z,1.20
2023-01-10T09:22:57.437Z,1.50
2023-01-10T09:25:26.463Z,2.20
2023-01-10T09:27:59.770Z,1.00
2023-01-10T09:30:30.052Z,2.10
2023-01-10T09:32:59.480Z,2.83
2023-01-10T09:35:31.111Z,3.63
2023-01-10T09:38:02.559Z,2.50
2023-01-10T09:40:48.844Z,1.65
2023-01-10T09:45:58.274Z,3.53
2023-01-10T09:48:38.213Z,1.23
2023-01-10T09:51:26.010Z,2.85
2023-01-10T09:54:10.609Z,2.72
2023-01-10T09:56:40.989Z,2.85
2023-01-10T09:59:16.546Z,2.45
2023-01-10T10:01:47.584Z,2.72
2023-01-10T10:04:24.946Z,2.00
2023-01-10T10:06:55.198Z,1.77
2023-01-10T10:09:26.487Z,1.63
2023-01-10T10:12:10.264Z,2.35
2023-01-10T10:15:02.629Z,4.50
2023-01-10T10:20:29.071Z,3.53
2023-01-10T10:23:34.462Z,1.48
2023-01-10T10:26:08.089Z,2.58
2023-01-10T10:28:55.458Z,1.15
2023-01-10T10:31:36.363Z,1.13
2023-01-10T10:34:15.147Z,1.70
2023-01-10T10:36:48.897Z,2.72
2023-01-10T10:39:24.346Z,3.63
2023-01-10T10:41:54.695Z,2.47
2023-01-10T10:44:35.044Z,1.73
2023-01-10T10:47:03.882Z,2.63
2023-01-10T10:49:39.321Z,1.83
2023-01-10T10:52:18.547Z,3.30
2023-01-10T10:54:48.428Z,1.95
2023-01-10T10:57:17.445Z,2.72
2023-01-10T10:59:48.355Z,1.42
2023-01-10T11:02:28.898Z,1.52
2023-01-10T11:05:00.447Z,2.35
2023-01-10T11:07:33.486Z,2.65
2023-01-10T11:10:14.218Z,3.38
2023-01-10T11:12:48.004Z,1.92
2023-01-10T11:18:06.343Z,1.33
2023-01-10T11:20:35.773Z,5.40
2023-01-10T11:23:06.010Z,2.30
2023-01-10T11:25:36.030Z,3.28
2023-01-10T11:28:06.150Z,2.90
2023-01-10T11:30:36.684Z,4.85
2023-01-10T11:33:08.440Z,2.83
2023-01-10T11:35:41.318Z,3.55
2023-01-10T11:38:21.910Z,4.15
2023-01-10T11:40:57.123Z,3.40
2023-01-10T11:43:29.322Z,2.70
2023-01-10T11:46:02.196Z,2.78
2023-01-10T11:49:04.496Z,4.07
2023-01-10T11:51:35.754Z,5.57
2023-01-10T11:54:08.538Z,2.78
2023-01-10T11:56:41.566Z,4.45
2023-01-10T11:59:12.640Z,4.88
2023-01-10T12:01:44.191Z,7.65
2023-01-10T12:04:16.651Z,5.90
2023-01-10T12:06:47.039Z,6.68
2023-01-10T12:09:35.859Z,10.05
2023-01-10T12:12:15.542Z,11.52
2023-01-10T12:14:44.252Z,11.93
2023-01-10T12:17:21.189Z,11.07
2023-01-10T12:19:50.272Z,12.07
2023-01-10T12:22:18.886Z,12.25
2023-01-10T12:24:51.340Z,9.45
2023-01-10T12:27:24.879Z,14.60
2023-01-10T12:30:03.993Z,11.43
2023-01-10T12:32:39.431Z,12.65
2023-01-10T12:35:15.067Z,11.65
2023-01-10T12:37:49.267Z,11.32
2023-01-10T12:40:26.491Z,11.40
2023-01-10T12:43:20.443Z,12.40
2023-01-10T12:45:52.176Z,12.40
2023-01-10T12:48:26.365Z,10.40
2023-01-10T12:51:00.383Z,10.13
2023-01-10T12:53:36.163Z,12.45
2023-01-10T12:56:07.920Z,12.20
2023-01-10T12:58:44.115Z,10.95
2023-01-10T13:01:16.638Z,10.65
2023-01-10T13:03:47.366Z,10.07
2023-01-10T13:06:25.331Z,11.25
2023-01-10T13:08:55.349Z,9.50
2023-01-10T13:11:28.414Z,11.80
2023-01-10T13:14:03.494Z,9.95
2023-01-10T13:16:37.826Z,12.13
2023-01-10T13:19:23.405Z,10.75
2023-01-10T13:21:53.387Z,10.85
2023-01-10T13:24:24.363Z,12.82
2023-01-10T13:26:54.878Z,11.57
2023-01-10T13:29:27.723Z,10.80
2023-01-10T13:31:58.364Z,9.15
2023-01-10T13:34:33.205Z,8.07
2023-01-10T13:37:05.342Z,14.60
2023-01-10T13:39:37.725Z,9.68
2023-01-10T13:42:42.256Z,10.57
2023-01-10T13:45:28.779Z,11.15
2023-01-10T13:48:25.719Z,8.63
2023-01-10T13:51:22.177Z,10.65
2023-01-10T13:54:00.024Z,9.18
2023-01-10T13:56:36.503Z,8.25
2023-01-10T13:59:28.610Z,8.38
2023-01-10T14:02:19.387Z,7.72
2023-01-10T14:04:51.292Z,8.52
2023-01-10T14:07:25.668Z,11.13
2023-01-10T14:09:59.875Z,9.05
2023-01-10T14:12:35.348Z,6.63
2023-01-10T14:15:08.158Z,8.27
2023-01-10T14:17:39.888Z,7.32
2023-01-10T14:20:23.055Z,7.03
2023-01-10T14:23:09.920Z,10.25
2023-01-10T14:25:39.535Z,9.75
2023-01-10T14:28:22.276Z,11.75
2023-01-10T14:31:01.951Z,7.15
2023-01-10T14:33:32.868Z,13.27
2023-01-10T14:36:07.444Z,11.00
2023-01-10T14:38:39.052Z,10.43
2023-01-10T14:41:13.289Z,6.60
2023-01-10T14:43:46.221Z,9.35
2023-01-10T14:46:18.974Z,7.30
2023-01-10T14:48:51.485Z,6.43
2023-01-10T14:51:24.053Z,10.70
2023-01-10T14:54:01.332Z,7.97
2023-01-10T14:56:31.476Z,8.40
2023-01-10T14:58:59.939Z,8.18
2023-01-10T15:01:31.064Z,7.68
2023-01-10T15:04:02.837Z,6.40
2023-01-10T15:06:51.004Z,10.88
2023-01-10T15:09:19.571Z,7.57
2023-01-10T15:11:49.694Z,10.82
2023-01-10T15:14:23.267Z,4.97
2023-01-10T15:16:54.935Z,7.10
2023-01-10T15:19:26.231Z,8.13
2023-01-10T15:21:54.750Z,5.38
2023-01-10T15:24:34.315Z,8.25
2023-01-10T15:27:05.240Z,5.18
2023-01-10T15:29:34.815Z,9.57
2023-01-10T15:32:11.672Z,5.75
2023-01-10T15:34:42.245Z,4.90
2023-01-10T15:37:20.173Z,7.55
2023-01-10T15:39:49.301Z,5.32
2023-01-10T15:42:21.941Z,7.57
2023-01-10T15:44:53.441Z,7.28
2023-01-10T15:47:41.732Z,6.38
2023-01-10T15:50:22.331Z,7.32
2023-01-10T15:52:52.422Z,6.07
2023-01-10T15:55:36.860Z,11.40
2023-01-10T15:58:06.284Z,5.25
2023-01-10T16:00:35.000Z,5.15
2023-01-10T16:03:03.815Z,8.07
2023-01-10T16:05:33.771Z,7.85
2023-01-10T16:08:07.793Z,5.70
2023-01-10T16:10:37.333Z,8.15
2023-01-10T16:13:27.606Z,5.25
2023-01-10T16:15:57.158Z,5.95
2023-01-10T16:18:26.183Z,7.50
2023-01-10T16:20:58.431Z,10.85
2023-01-10T16:23:30.315Z,6.57
2023-01-10T16:26:01.223Z,11.95
2023-01-10T16:28:35.763Z,15.15
2023-01-10T16:31:06.550Z,10.68
2023-01-10T16:33:37.489Z,9.70
2023-01-10T16:36:15.851Z,6.60
2023-01-10T16:38:45.079Z,12.18
2023-01-10T16:41:32.444Z,17.33
2023-01-10T16:44:01.688Z,13.02
2023-01-10T16:46:30.913Z,7.28
2023-01-10T16:49:00.440Z,8.63
2023-01-10T16:51:32.590Z,6.45
2023-01-10T16:54:01.772Z,12.27
2023-01-10T16:56:30.895Z,10.32
2023-01-10T16:58:59.485Z,5.53
2023-01-10T17:01:31.459Z,9.73
2023-01-10T17:04:00.490Z,10.05
2023-01-10T17:06:30.392Z,10.75
2023-01-10T17:08:58.870Z,8.15
2023-01-10T17:11:30.887Z,7.50
2023-01-10T17:14:00.561Z,7.88
2023-01-10T17:16:29.227Z,4.50
2023-01-10T17:18:57.764Z,7.85
2023-01-10T17:21:26.754Z,8.50
2023-01-10T17:23:56.599Z,11.65
2023-01-10T17:26:25.074Z,9.77
2023-01-10T17:28:53.596Z,5.43
2023-01-10T17:31:22.132Z,10.02
2023-01-10T17:33:50.736Z,9.07
2023-01-10T17:36:19.759Z,9.32
2023-01-10T17:38:48.361Z,6.32
2023-01-10T17:41:18.186Z,7.60
2023-01-10T17:43:46.731Z,8.05
2023-01-10T17:46:16.656Z,7.82
2023-01-10T17:48:45.339Z,6.18
2023-01-10T17:51:13.864Z,10.38
2023-01-10T17:53:42.429Z,6.55
2023-01-10T17:56:11.565Z,7.22
2023-01-10T17:58:41.420Z,4.35
2023-01-10T18:01:19.045Z,7.63
2023-01-10T18:03:47.692Z,7.15
2023-01-10T18:06:23.777Z,7.13
2023-01-10T18:08:53.044Z,5.93
2023-01-10T18:11:22.735Z,4.78
2023-01-10T18:13:52.604Z,7.93
2023-01-10T18:16:21.125Z,6.07
2023-01-10T18:18:50.005Z,5.07
2023-01-10T18:21:19.990Z,4.97
2023-01-10T18:23:49.831Z,5.13
2023-01-10T18:26:19.716Z,4.93
2023-01-10T18:28:48.241Z,8.18
2023-01-10T18:31:19.644Z,6.13
2023-01-10T18:33:49.256Z,3.33
2023-01-10T18:36:19.573Z,4.97
2023-01-10T18:38:48.970Z,6.13
2023-01-10T18:41:19.125Z,2.72
2023-01-10T18:43:48.228Z,3.15
2023-01-10T18:46:20.176Z,6.10
2023-01-10T18:48:52.357Z,4.75
2023-01-10T18:51:22.618Z,4.57
2023-01-10T18:53:52.849Z,5.80
2023-01-10T18:56:21.363Z,5.15
2023-01-10T18:58:50.036Z,6.15
2023-01-10T19:01:22.032Z,2.17
2023-01-10T19:03:51.135Z,4.50
2023-01-10T19:06:22.593Z,3.35
2023-01-10T19:08:52.190Z,4.85
2023-01-10T19:11:21.031Z,3.15
2023-01-10T19:13:51.425Z,5.95
2023-01-10T19:16:23.158Z,4.45
2023-01-10T19:18:53.889Z,6.65
2023-01-10T19:21:23.427Z,5.07
2023-01-10T19:23:54.942Z,5.15
2023-01-10T19:26:24.809Z,4.70
2023-01-10T19:28:53.639Z,4.93
2023-01-10T19:31:25.476Z,4.50
2023-01-10T19:33:54.537Z,3.67
2023-01-10T19:36:24.408Z,3.33
2023-01-10T19:38:56.034Z,4.70
2023-01-10T19:41:24.763Z,3.13
2023-01-10T19:43:57.757Z,4.20
2023-01-10T19:46:28.250Z,7.25
2023-01-10T19:48:57.252Z,6.20
2023-01-10T19:51:26.213Z,5.50
2023-01-10T19:53:54.695Z,4.45
2023-01-10T19:56:23.315Z,3.75
2023-01-10T19:58:52.140Z,3.65
2023-01-10T20:01:23.407Z,4.90
2023-01-10T20:03:55.436Z,6.00
2023-01-10T20:06:26.613Z,2.72
2023-01-10T20:08:56.374Z,5.05
2023-01-10T20:11:26.359Z,5.80
2023-01-10T20:13:54.975Z,3.25
2023-01-10T20:16:24.681Z,5.75
2023-01-10T20:18:54.658Z,3.83
2023-01-10T20:21:23.281Z,4.00
2023-01-10T20:23:52.324Z,10.82
2023-01-10T20:26:22.675Z,3.22
2023-01-10T20:28:51.393Z,4.78
2023-01-10T20:31:21.736Z,4.63
2023-01-10T20:33:50.892Z,5.47
2023-01-10T20:36:23.009Z,3.72
2023-01-10T20:38:52.070Z,5.72
2023-01-10T20:41:22.443Z,5.15
2023-01-10T20:43:51.135Z,5.95
2023-01-10T20:46:21.489Z,6.47
2023-01-10T20:48:50.839Z,3.95
2023-01-10T20:51:22.675Z,3.78
2023-01-10T20:53:51.856Z,6.28
2023-01-10T20:56:22.227Z,2.25
2023-01-10T20:58:52.071Z,4.32
2023-01-10T21:01:33.001Z,2.13
2023-01-10T21:04:03.925Z,5.93
2023-01-10T21:06:35.575Z,2.22
2023-01-10T21:09:05.341Z,4.82
2023-01-10T21:11:44.348Z,3.67
2023-01-10T21:14:20.493Z,2.65
2023-01-10T21:16:49.321Z,3.35
2023-01-10T21:19:17.966Z,3.25
2023-01-10T21:21:47.788Z,2.78
2023-01-10T21:24:16.686Z,6.00
2023-01-10T21:26:45.221Z,2.53
2023-01-10T21:29:13.681Z,1.38
2023-01-10T21:31:42.166Z,2.85
2023-01-10T21:34:10.642Z,3.55
2023-01-10T21:36:39.121Z,2.10
2023-01-10T21:39:09.045Z,1.42
2023-01-10T21:41:55.030Z,3.40
2023-01-10T21:44:26.101Z,2.53
2023-01-10T21:46:54.689Z,3.08
2023-01-10T21:49:23.291Z,3.30
2023-01-10T21:51:51.856Z,3.72
2023-01-10T21:54:21.918Z,1.58
2023-01-10T21:56:50.579Z,4.47
2023-01-10T21:59:19.017Z,3.25
2023-01-10T22:01:47.728Z,2.13
2023-01-10T22:04:17.363Z,1.70
2023-01-10T22:06:46.193Z,2.75
2023-01-10T22:09:15.169Z,2.53
2023-01-10T22:11:48.180Z,3.25
2023-01-10T22:14:16.720Z,2.28
2023-01-10T22:16:45.372Z,4.25
2023-01-10T22:19:13.784Z,2.58
2023-01-10T22:21:42.182Z,4.55
2023-01-10T22:24:11.798Z,2.10
2023-01-10T22:26:40.263Z,2.53
2023-01-10T22:29:10.169Z,2.17
2023-01-10T22:31:41.152Z,2.45
2023-01-10T22:34:10.516Z,2.65
2023-01-10T22:36:39.002Z,3.35
2023-01-10T22:39:07.974Z,2.50
2023-01-10T22:41:37.329Z,1.88
2023-01-10T22:44:06.173Z,1.95
2023-01-10T22:46:36.195Z,2.20
2023-01-10T22:49:04.675Z,2.55
2023-01-10T22:51:35.526Z,1.88
2023-01-10T22:54:04.429Z,2.08
2023-01-10T22:56:33.321Z,3.08
2023-01-10T22:59:01.881Z,0.82
2023-01-10T23:01:30.290Z,2.60
2023-01-10T23:04:00.174Z,1.50
2023-01-10T23:06:28.903Z,3.08
2023-01-10T23:08:57.531Z,1.50
2023-01-10T23:11:25.973Z,2.50
2023-01-10T23:13:54.369Z,2.38
2023-01-10T23:16:28.640Z,2.42
2023-01-10T23:18:58.876Z,1.40
2023-01-10T23:21:29.816Z,1.95
2023-01-10T23:23:58.456Z,1.70
2023-01-10T23:26:26.958Z,2.58
2023-01-10T23:28:55.419Z,1.60
2023-01-10T23:31:25.981Z,3.28
2023-01-10T23:33:55.288Z,1.42
2023-01-10T23:36:23.971Z,1.25
2023-01-10T23:38:53.853Z,2.05
2023-01-10T23:41:22.234Z,1.95
2023-01-10T23:43:51.368Z,2.88
2023-01-10T23:46:21.110Z,1.40
2023-01-10T23:48:49.505Z,1.95
2023-01-10T23:51:18.124Z,1.73
2023-01-10T23:53:46.597Z,1.75
2023-01-10T23:56:16.727Z,1.38
2023-01-10T23:58:45.364Z,1.40
